Pagrindinis puslapis
METAR-TAF:

METAR-TAF

Oro uostai :

Marianhamina, Suomija

platuma: 60-07N, ilguma: 019-54E, Aukštis: 6 m

Dabartinis oras

Ataskaita buvo paskelbta 37 minutes, ne 09:50 UTC
Vėjas 15 kt iš Pietų
Temperatūra 8°C
Drėgmė 100%
Slėgis 1002 hPa
Matomumas 10 km arba daugiau
Apsiniaukę ne aukštis 500 ft
lietus

METAR: EFMA 270950Z AUTO 18015KT 9999 SHRA OVC005 //////CB 08/08 Q1002

Laikas: 13:27 (10:27 UTC)

Prognozė

Ataskaita buvo paskelbta 1 valandą ir 50 minutes, ne 08:37 UTC
Prognozė galioja nuo 27 metu 09 UTC su 27 metu 18 UTC
Vėjas 12 kt iš Pietvakarių
Matomumas 10 km arba daugiau
Su prošvaistėmis ne aukštis 700 ft
lietus
Laikinai
nuo 27 metu 10 UTC su 27 metu 12 UTC
Matomumas: 4000 m
Su prošvaistėmis ne aukštis 1000 ft
lietus
Laikinai
nuo 27 metu 12 UTC su 27 metu 14 UTC
Vėjas 15 kt iš Pietvakarių su gūsio iki 25 kt
Laikinai
nuo 27 metu 15 UTC su 27 metu 18 UTC
Išsisklaidę debesys ne aukštis 1200 ft

TAF: EFMA 270837Z 2709/2718 23012KT 9999 -RA BKN007 TEMPO 2710/2712 4000 RA BKN010 TEMPO 2712/2714 22015G25KT TEMPO 2715/2718 SCT012

Orai ataskaitas ir orų prognozės (METAR, TAF).

turimą stotys yra geltonos ir raudonos taškus žemėlapyje.

Perkelti pele per norėdami pamatyti stoties vardą.

Tada spustelėkite, norėdami matyti oro stebėjimo ir prognozės.

Norėdami pakeisti žemėlapį: spustelėkite ant žalios mygtukų su juodo kryžiaus žemyn,; žalią mygtuką su brūkšneliu, jei norite nutolinti; arba žalių rodyklių gretimoms žemėlapius.


METAR-TAF: